KRIL/RIL METAR and TAF weather

Enter ICAO airport designator
Station Type Date Time Source
KRIL METAR 2020/12/05 04:53 UTC NOAA

KRIL 050453Z AUTO 12005KT 10SM CLR M03/M13 A3040 RMK AO2 SLP330 T10331128


Station Type Date Time Source
KRIL Decoded METAR 2020/12/05 04:53 UTC NOAA

RIFLE GARFIELD COUNTY RGNL, CO, United States (KRIL) 39-31N 107-44W 1678M
Dec 04, 2020 - 11:53 PM EST / 2020.12.05 0453 UTC
Wind: from the ESE (120 degrees) at 6 MPH (5 KT):0
Visibility: 10 mile(s):0
Sky conditions: clear
Temperature: 26.1 F (-3.3 C)
Windchill: 19 F (-7 C):1
Dew Point: 9.0 F (-12.8 C)
Relative Humidity: 47%
Pressure (altimeter): 30.4 in. Hg (1029 hPa)
ob: KRIL 050453Z AUTO 12005KT 10SM CLR M03/M13 A3040 RMK AO2 SLP330 T10331128
cycle: 5

Station Type Date Time Source
KRIL TAF 2020/12/04 18:22 UTC NOAA

TAF KRIL 041720Z 0418/0518 VRB03KT P6SM SKC

Example: see airport list